Time;durP1;ratioP1;P1;durP2;ratioP2;P2;SDS_P1;SDS_P2;PMS_P1;PMS_P2;Temp;Humidity;BMP_temperature;BMP_pressure;BME280_temperature;BME280_humidity;BME280_pressure;Samples;Min_cycle;Max_cycle;Signal;HPM_P1;HPM_P2
2022/11/20 00:00:22;;;;;;;20.03;16.07;;;;;;;;;;4994969;28;20912;-71
2022/11/20 00:02:49;;;;;;;18.43;15.70;;;;;;;;;;4993348;28;20225;-71
2022/11/20 00:05:17;;;;;;;19.93;16.73;;;;;;;;;;4994507;28;20349;-71
2022/11/20 00:07:45;;;;;;;18.40;16.40;;;;;;;;;;4996807;28;20221;-71
2022/11/20 00:10:12;;;;;;;18.00;16.10;;;;;;;;;;4996766;28;20722;-70
2022/11/20 00:12:41;;;;;;;20.23;17.20;;;;;;;;;;4995886;28;20210;-70
2022/11/20 00:15:09;;;;;;;18.07;16.10;;;;;;;;;;4999607;28;20812;-71
2022/11/20 00:17:37;;;;;;;18.40;16.33;;;;;;;;;;5001420;28;20205;-72
2022/11/20 00:20:05;;;;;;;18.40;15.47;;;;;;;;;;5002065;28;20210;-71
2022/11/20 00:22:32;;;;;;;17.60;15.73;;;;;;;;;;4995859;28;20660;-71
2022/11/20 00:24:59;;;;;;;18.50;16.37;;;;;;;;;;4997597;28;20213;-71
2022/11/20 00:27:27;;;;;;;19.77;15.73;;;;;;;;;;4998801;28;20974;-70
2022/11/20 00:29:56;;;;;;;19.63;16.13;;;;;;;;;;4996018;28;20220;-71
2022/11/20 00:32:23;;;;;;;22.17;17.10;;;;;;;;;;4992358;28;20205;-71
2022/11/20 00:34:50;;;;;;;16.13;13.87;;;;;;;;;;4994448;28;20764;-71
2022/11/20 00:37:18;;;;;;;20.83;16.30;;;;;;;;;;4997267;28;20225;-71
2022/11/20 00:39:45;;;;;;;21.57;17.60;;;;;;;;;;4998567;28;20206;-71
2022/11/20 00:42:13;;;;;;;24.13;18.13;;;;;;;;;;5000301;28;20219;-71
2022/11/20 00:44:40;;;;;;;19.10;16.00;;;;;;;;;;4997468;28;20244;-70
2022/11/20 00:47:09;;;;;;;19.27;17.17;;;;;;;;;;4999562;28;20392;-70
2022/11/20 00:49:36;;;;;;;18.60;15.80;;;;;;;;;;4996530;28;20450;-71
2022/11/20 00:52:04;;;;;;;20.53;15.93;;;;;;;;;;4999381;28;20205;-71
2022/11/20 00:54:31;;;;;;;19.53;16.60;;;;;;;;;;5000672;28;20200;-71
2022/11/20 00:56:59;;;;;;;21.03;17.03;;;;;;;;;;4999431;28;20232;-71
2022/11/20 00:59:26;;;;;;;20.20;17.70;;;;;;;;;;4998178;28;20737;-71
2022/11/20 01:01:54;;;;;;;18.07;16.13;;;;;;;;;;4998323;28;20217;-71
2022/11/20 01:04:22;;;;;;;18.57;16.43;;;;;;;;;;4951337;28;20220;-71
2022/11/20 01:06:50;;;;;;;22.57;17.60;;;;;;;;;;4994992;28;20295;-71
2022/11/20 01:09:17;;;;;;;20.53;17.67;;;;;;;;;;4997101;28;20613;-71
2022/11/20 01:11:45;;;;;;;21.47;16.93;;;;;;;;;;4993018;28;20329;-71
2022/11/20 01:14:14;;;;;;;20.90;17.60;;;;;;;;;;4998410;28;20200;-71
2022/11/20 01:16:42;;;;;;;20.93;17.03;;;;;;;;;;4998720;28;20228;-71
2022/11/20 01:19:11;;;;;;;19.50;17.47;;;;;;;;;;5002375;28;20212;-71
2022/11/20 01:21:45;;;;;;;19.77;17.63;;;;;;;;;;4995601;28;20209;-71
2022/11/20 01:24:14;;;;;;;20.20;17.10;;;;;;;;;;4998707;28;20727;-71
2022/11/20 01:26:43;;;;;;;21.70;17.07;;;;;;;;;;4999249;28;20225;-71
2022/11/20 01:29:13;;;;;;;20.10;17.10;;;;;;;;;;4995271;28;20640;-70
2022/11/20 01:31:40;;;;;;;20.70;17.40;;;;;;;;;;4997809;28;20213;-70
2022/11/20 01:34:10;;;;;;;19.53;17.40;;;;;;;;;;4995501;28;20850;-70
2022/11/20 01:36:38;;;;;;;17.93;15.93;;;;;;;;;;4991072;28;20758;-72
2022/11/20 01:39:08;;;;;;;24.60;18.20;;;;;;;;;;4999786;28;20474;-73
2022/11/20 01:44:21;;;;;;;22.07;17.20;;;;;;;;;;5001444;28;20549;-72
2022/11/20 01:46:53;;;;;;;20.43;16.20;;;;;;;;;;4992863;28;20962;-71
2022/11/20 01:49:23;;;;;;;19.67;15.03;;;;;;;;;;4999288;28;20239;-71
2022/11/20 01:51:51;;;;;;;20.63;16.90;;;;;;;;;;4997730;28;20208;-71
2022/11/20 01:54:22;;;;;;;21.83;17.77;;;;;;;;;;4995986;28;20231;-70
2022/11/20 01:56:52;;;;;;;19.87;17.37;;;;;;;;;;5000330;28;20228;-71
2022/11/20 01:59:20;;;;;;;22.47;17.63;;;;;;;;;;4995580;28;20209;-72
2022/11/20 02:01:48;;;;;;;19.63;17.33;;;;;;;;;;4997348;28;20196;-71
2022/11/20 02:04:16;;;;;;;21.87;17.87;;;;;;;;;;5001674;28;20225;-72
2022/11/20 02:06:45;;;;;;;19.20;16.87;;;;;;;;;;4996811;28;20241;-71
2022/11/20 02:09:13;;;;;;;19.07;17.03;;;;;;;;;;4993806;28;20205;-71
2022/11/20 02:11:41;;;;;;;19.23;15.80;;;;;;;;;;4998586;28;20224;-73
2022/11/20 02:14:08;;;;;;;19.60;16.70;;;;;;;;;;4946799;28;20207;-69
2022/11/20 02:16:37;;;;;;;20.47;16.80;;;;;;;;;;4989219;28;20272;-70
2022/11/20 02:19:06;;;;;;;21.03;17.90;;;;;;;;;;4999794;28;20212;-69
2022/11/20 02:21:37;;;;;;;21.23;17.83;;;;;;;;;;4998596;28;20259;-70
2022/11/20 02:24:07;;;;;;;21.63;18.90;;;;;;;;;;5002572;28;20243;-71
2022/11/20 02:26:38;;;;;;;21.17;17.30;;;;;;;;;;5002959;28;20287;-70
2022/11/20 02:29:05;;;;;;;22.27;17.53;;;;;;;;;;5003286;28;20207;-70
2022/11/20 02:31:40;;;;;;;22.83;18.90;;;;;;;;;;5005099;28;20205;-71
2022/11/20 02:34:08;;;;;;;23.40;19.70;;;;;;;;;;4999521;28;20200;-71
2022/11/20 02:36:36;;;;;;;26.47;19.53;;;;;;;;;;4999541;28;20225;-71
2022/11/20 02:39:03;;;;;;;23.90;18.50;;;;;;;;;;5003297;28;20213;-71
2022/11/20 02:41:33;;;;;;;24.60;19.30;;;;;;;;;;5003554;28;20201;-71
2022/11/20 02:44:00;;;;;;;25.57;20.07;;;;;;;;;;5003861;28;20224;-71
2022/11/20 02:46:28;;;;;;;21.33;17.03;;;;;;;;;;5003479;28;20225;-71
2022/11/20 02:48:55;;;;;;;24.07;17.93;;;;;;;;;;4997870;28;20358;-70
2022/11/20 02:51:23;;;;;;;23.93;20.33;;;;;;;;;;4993211;28;20470;-70
2022/11/20 02:53:51;;;;;;;22.70;18.03;;;;;;;;;;4997561;28;20753;-70
2022/11/20 02:56:18;;;;;;;23.50;18.57;;;;;;;;;;4996866;28;20233;-70
2022/11/20 02:58:47;;;;;;;24.03;19.43;;;;;;;;;;4998891;28;20424;-70
2022/11/20 03:01:14;;;;;;;21.27;18.10;;;;;;;;;;5004512;28;20213;-71
2022/11/20 03:03:42;;;;;;;24.00;18.80;;;;;;;;;;4996871;28;20240;-70
2022/11/20 03:06:09;;;;;;;23.07;19.83;;;;;;;;;;4998537;28;20288;-71
2022/11/20 03:08:37;;;;;;;22.67;17.77;;;;;;;;;;4988481;28;20205;-71
2022/11/20 03:11:05;;;;;;;25.20;19.83;;;;;;;;;;4999647;28;20262;-71
2022/11/20 03:13:33;;;;;;;21.87;18.10;;;;;;;;;;5002090;28;20205;-71
2022/11/20 03:16:07;;;;;;;27.70;19.70;;;;;;;;;;4997717;28;20221;-71
2022/11/20 03:18:34;;;;;;;23.93;18.67;;;;;;;;;;5002178;28;20213;-71
2022/11/20 03:21:01;;;;;;;26.83;19.37;;;;;;;;;;5000391;28;20225;-71
2022/11/20 03:23:30;;;;;;;24.13;19.30;;;;;;;;;;4995735;28;20236;-71
2022/11/20 03:25:57;;;;;;;25.13;19.87;;;;;;;;;;4950872;28;20232;-70
2022/11/20 03:28:25;;;;;;;23.60;19.40;;;;;;;;;;5001804;28;20216;-71
2022/11/20 03:30:52;;;;;;;24.13;19.73;;;;;;;;;;5001099;28;20271;-71
2022/11/20 03:33:21;;;;;;;28.07;20.33;;;;;;;;;;4999002;28;20201;-71
2022/11/20 03:35:48;;;;;;;26.87;20.80;;;;;;;;;;4997883;28;20275;-71
2022/11/20 03:38:15;;;;;;;24.63;19.93;;;;;;;;;;5002018;28;20205;-71
2022/11/20 03:40:43;;;;;;;28.97;19.40;;;;;;;;;;4998025;28;20456;-71
2022/11/20 03:43:10;;;;;;;26.23;19.40;;;;;;;;;;4999636;28;20299;-72
2022/11/20 03:45:38;;;;;;;26.50;20.27;;;;;;;;;;5002040;28;20225;-71
2022/11/20 03:48:05;;;;;;;25.63;18.93;;;;;;;;;;5003413;28;20435;-71
2022/11/20 03:50:34;;;;;;;28.33;20.30;;;;;;;;;;4997275;28;20743;-71
2022/11/20 03:53:01;;;;;;;25.57;20.23;;;;;;;;;;5004504;28;20220;-72
2022/11/20 03:55:29;;;;;;;26.10;19.13;;;;;;;;;;5000961;28;20626;-72
2022/11/20 03:57:56;;;;;;;26.60;19.57;;;;;;;;;;5001826;28;20243;-72
2022/11/20 04:00:24;;;;;;;26.53;19.47;;;;;;;;;;4997830;28;20506;-71
2022/11/20 04:02:51;;;;;;;24.97;19.60;;;;;;;;;;4999641;28;20205;-72
2022/11/20 04:05:19;;;;;;;25.10;19.00;;;;;;;;;;4993722;28;20471;-72
2022/11/20 04:07:48;;;;;;;26.93;19.20;;;;;;;;;;4999729;28;20212;-72
2022/11/20 04:10:15;;;;;;;26.17;19.93;;;;;;;;;;5001956;28;20212;-72
2022/11/20 04:12:42;;;;;;;27.40;20.43;;;;;;;;;;4996408;28;20684;-73
2022/11/20 04:15:10;;;;;;;26.00;20.60;;;;;;;;;;5000398;28;20196;-71
2022/11/20 04:17:38;;;;;;;24.13;18.87;;;;;;;;;;5001706;28;20205;-72
2022/11/20 04:20:06;;;;;;;25.77;20.73;;;;;;;;;;4999098;28;20213;-70
2022/11/20 04:22:33;;;;;;;26.90;21.03;;;;;;;;;;5001288;28;20205;-73
2022/11/20 04:25:02;;;;;;;26.57;19.67;;;;;;;;;;4998583;28;20232;-72
2022/11/20 04:27:31;;;;;;;25.47;19.63;;;;;;;;;;5000298;28;20617;-72
2022/11/20 04:29:58;;;;;;;27.33;21.00;;;;;;;;;;4999738;28;20266;-71
2022/11/20 04:32:25;;;;;;;28.30;21.50;;;;;;;;;;4997936;28;20205;-73
2022/11/20 04:34:53;;;;;;;28.47;21.17;;;;;;;;;;4952334;28;21027;-70
2022/11/20 04:37:20;;;;;;;29.93;21.40;;;;;;;;;;4994789;28;20526;-70
2022/11/20 04:39:48;;;;;;;26.37;20.17;;;;;;;;;;4994839;28;20213;-72
2022/11/20 04:42:29;;;;;;;27.30;20.87;;;;;;;;;;5000890;28;20463;-71
2022/11/20 04:44:56;;;;;;;29.10;21.27;;;;;;;;;;4996030;28;20468;-70
2022/11/20 04:47:24;;;;;;;27.23;20.47;;;;;;;;;;4999305;28;20229;-69
2022/11/20 04:49:51;;;;;;;25.73;19.80;;;;;;;;;;4998083;28;20201;-71
2022/11/20 04:52:19;;;;;;;30.67;22.80;;;;;;;;;;4999837;28;20203;-68
2022/11/20 04:54:46;;;;;;;28.37;21.30;;;;;;;;;;5000180;28;20477;-71
2022/11/20 04:57:15;;;;;;;28.73;21.67;;;;;;;;;;5001014;28;20656;-71
2022/11/20 04:59:44;;;;;;;26.23;21.70;;;;;;;;;;4998554;28;21282;-71
2022/11/20 05:02:12;;;;;;;32.37;22.57;;;;;;;;;;5000902;28;20225;-70
2022/11/20 05:04:39;;;;;;;30.43;21.30;;;;;;;;;;4998417;28;20460;-70
2022/11/20 05:07:06;;;;;;;29.73;22.67;;;;;;;;;;4997497;28;20565;-68
2022/11/20 05:09:34;;;;;;;28.40;21.23;;;;;;;;;;5003312;28;20446;-71
2022/11/20 05:12:01;;;;;;;29.83;22.67;;;;;;;;;;5009052;28;20208;-71
2022/11/20 05:14:29;;;;;;;30.13;22.10;;;;;;;;;;5000739;28;20949;-68
2022/11/20 05:16:58;;;;;;;27.83;20.87;;;;;;;;;;4999791;28;20225;-69
2022/11/20 05:19:25;;;;;;;30.27;22.27;;;;;;;;;;4998884;28;20450;-70
2022/11/20 05:21:52;;;;;;;33.57;24.13;;;;;;;;;;4993542;28;20282;-69
2022/11/20 05:24:20;;;;;;;32.23;22.87;;;;;;;;;;4988913;28;20406;-68
2022/11/20 05:26:47;;;;;;;28.77;21.80;;;;;;;;;;5000609;28;20263;-70
2022/11/20 05:29:15;;;;;;;30.10;22.17;;;;;;;;;;4998755;28;20208;-70
2022/11/20 05:31:42;;;;;;;31.97;22.00;;;;;;;;;;4998483;28;20881;-70
2022/11/20 05:34:11;;;;;;;30.70;21.97;;;;;;;;;;4998856;28;20444;-68
2022/11/20 05:36:38;;;;;;;32.60;22.57;;;;;;;;;;5000112;28;21392;-69
2022/11/20 05:39:06;;;;;;;28.50;21.30;;;;;;;;;;4997226;28;20471;-69
2022/11/20 05:41:33;;;;;;;38.67;27.75;;;;;;;;;;4994671;28;20462;-70
2022/11/20 05:44:01;;;;;;;32.80;23.50;;;;;;;;;;4997811;28;20217;-70
2022/11/20 05:46:28;;;;;;;33.10;23.07;;;;;;;;;;4949765;28;20743;-70
2022/11/20 05:48:57;;;;;;;29.27;21.70;;;;;;;;;;4997948;28;20212;-69
2022/11/20 05:51:26;;;;;;;31.27;21.43;;;;;;;;;;4993336;28;20576;-69
2022/11/20 05:53:54;;;;;;;34.00;24.43;;;;;;;;;;4994035;28;20220;-69
2022/11/20 05:56:22;;;;;;;33.83;24.63;;;;;;;;;;4995512;28;20526;-72
2022/11/20 05:58:49;;;;;;;31.27;22.03;;;;;;;;;;4994377;28;20975;-73
2022/11/20 06:01:18;;;;;;;34.40;22.73;;;;;;;;;;4997320;28;20209;-71
2022/11/20 06:03:47;;;;;;;29.60;21.47;;;;;;;;;;4998310;28;20464;-72
2022/11/20 06:06:15;;;;;;;30.73;23.57;;;;;;;;;;4989277;28;20719;-70
2022/11/20 06:08:44;;;;;;;35.67;23.40;;;;;;;;;;4997711;28;21036;-70
2022/11/20 06:11:13;;;;;;;30.87;22.70;;;;;;;;;;4995814;28;20479;-70
2022/11/20 06:13:40;;;;;;;33.00;22.70;;;;;;;;;;4993684;28;20456;-70
2022/11/20 06:16:09;;;;;;;31.37;22.23;;;;;;;;;;4998302;28;20671;-70
2022/11/20 06:18:37;;;;;;;31.50;23.73;;;;;;;;;;4998329;28;20208;-71
2022/11/20 06:21:05;;;;;;;30.53;23.00;;;;;;;;;;4998516;28;20456;-68
2022/11/20 06:23:33;;;;;;;31.37;22.50;;;;;;;;;;4999019;28;20213;-69
2022/11/20 06:26:03;;;;;;;35.97;24.23;;;;;;;;;;4994587;28;20231;-70
2022/11/20 06:28:31;;;;;;;30.47;22.27;;;;;;;;;;4998927;28;20468;-67
2022/11/20 06:30:58;;;;;;;30.37;22.60;;;;;;;;;;5000557;28;20475;-72
2022/11/20 06:33:26;;;;;;;40.80;28.37;;;;;;;;;;5002157;28;20455;-69
2022/11/20 06:35:56;;;;;;;34.20;25.23;;;;;;;;;;4994905;28;20232;-69
2022/11/20 06:38:28;;;;;;;36.73;24.90;;;;;;;;;;5001010;28;20670;-70
2022/11/20 06:40:55;;;;;;;32.73;22.43;;;;;;;;;;4994125;28;20438;-69
2022/11/20 06:43:25;;;;;;;32.70;21.77;;;;;;;;;;4998712;28;20205;-71
2022/11/20 06:45:53;;;;;;;37.40;23.50;;;;;;;;;;4998425;28;20229;-72
2022/11/20 06:48:20;;;;;;;35.83;24.17;;;;;;;;;;4994217;28;20456;-70
2022/11/20 06:50:48;;;;;;;34.33;23.50;;;;;;;;;;4997015;28;20212;-68
2022/11/20 06:53:15;;;;;;;42.72;30.67;;;;;;;;;;5000542;28;21720;-75
2022/11/20 06:55:43;;;;;;;37.27;26.30;;;;;;;;;;4955300;28;21797;-70
2022/11/20 06:58:10;;;;;;;35.30;24.40;;;;;;;;;;4995768;28;20448;-73
2022/11/20 07:00:39;;;;;;;37.13;25.77;;;;;;;;;;4996169;28;20206;-72
2022/11/20 07:03:08;;;;;;;36.47;24.47;;;;;;;;;;5000683;28;20258;-72
2022/11/20 07:05:36;;;;;;;36.73;24.00;;;;;;;;;;4997862;28;20739;-71
2022/11/20 07:08:04;;;;;;;32.80;23.70;;;;;;;;;;5002361;28;20225;-72
2022/11/20 07:10:32;;;;;;;37.97;23.20;;;;;;;;;;5002973;28;20676;-72
2022/11/20 07:12:59;;;;;;;36.43;23.73;;;;;;;;;;5003151;28;20271;-72
2022/11/20 07:15:27;;;;;;;36.77;24.23;;;;;;;;;;5000989;28;20504;-72
2022/11/20 07:17:56;;;;;;;30.90;22.27;;;;;;;;;;5003537;28;20436;-69
2022/11/20 07:20:23;;;;;;;36.13;23.83;;;;;;;;;;4997466;28;20455;-71
2022/11/20 07:22:54;;;;;;;39.80;25.27;;;;;;;;;;5001221;28;20724;-69
2022/11/20 07:25:21;;;;;;;36.83;23.00;;;;;;;;;;4998321;28;20514;-72
2022/11/20 07:27:48;;;;;;;33.47;24.33;;;;;;;;;;5000381;28;21057;-71
2022/11/20 07:30:16;;;;;;;32.60;22.90;;;;;;;;;;5003190;28;20267;-72
2022/11/20 07:32:46;;;;;;;32.87;22.07;;;;;;;;;;5001264;28;20200;-70
2022/11/20 07:35:15;;;;;;;33.33;23.43;;;;;;;;;;4995212;28;20208;-73
2022/11/20 07:37:43;;;;;;;31.07;22.57;;;;;;;;;;5001135;28;20704;-70
2022/11/20 07:40:11;;;;;;;28.50;20.23;;;;;;;;;;5001852;28;20337;-72
2022/11/20 07:42:38;;;;;;;26.30;20.03;;;;;;;;;;5002942;28;21761;-72
2022/11/20 07:45:06;;;;;;;28.20;21.03;;;;;;;;;;5003422;28;20205;-70
2022/11/20 07:47:35;;;;;;;29.03;22.40;;;;;;;;;;5000279;28;20302;-72
2022/11/20 07:50:03;;;;;;;28.80;22.00;;;;;;;;;;5000027;28;20207;-72
2022/11/20 07:52:32;;;;;;;34.37;23.43;;;;;;;;;;5002435;28;20443;-72
2022/11/20 07:54:59;;;;;;;33.43;22.90;;;;;;;;;;4993541;28;20336;-72
2022/11/20 07:57:27;;;;;;;29.73;21.43;;;;;;;;;;5000894;28;20220;-71
2022/11/20 07:59:55;;;;;;;32.37;22.40;;;;;;;;;;4998423;28;20251;-70
2022/11/20 08:02:22;;;;;;;31.73;22.97;;;;;;;;;;4998117;28;20267;-71
2022/11/20 08:04:49;;;;;;;38.57;25.20;;;;;;;;;;4997290;28;20588;-72
2022/11/20 08:07:17;;;;;;;36.07;23.83;;;;;;;;;;4946121;28;20724;-72
2022/11/20 08:20:29;;;;;;;31.53;21.87;;;;;;;;;;4942769;28;20393;-69
2022/11/20 08:23:00;;;;;;;32.22;24.67;;;;;;;;;;4992134;28;20458;-69
2022/11/20 08:25:28;;;;;;;29.20;20.77;;;;;;;;;;4990980;28;20663;-72
2022/11/20 08:27:57;;;;;;;28.73;20.20;;;;;;;;;;4997147;28;20707;-69
2022/11/20 08:30:27;;;;;;;27.30;20.23;;;;;;;;;;4996024;28;20202;-72
2022/11/20 08:32:55;;;;;;;39.45;27.10;;;;;;;;;;4996967;28;20795;-72
2022/11/20 08:35:22;;;;;;;29.77;22.67;;;;;;;;;;4994083;28;20555;-70
2022/11/20 08:37:51;;;;;;;29.43;20.57;;;;;;;;;;4995876;28;20544;-68
2022/11/20 08:40:19;;;;;;;32.03;21.53;;;;;;;;;;4992643;28;20705;-71
2022/11/20 08:42:46;;;;;;;30.77;21.13;;;;;;;;;;4999603;28;20204;-71
2022/11/20 08:45:14;;;;;;;40.33;27.27;;;;;;;;;;4986646;28;20829;-71
2022/11/20 08:47:42;;;;;;;32.43;21.47;;;;;;;;;;4994285;28;20816;-71
2022/11/20 08:50:09;;;;;;;29.73;22.33;;;;;;;;;;5000161;28;20655;-73
2022/11/20 08:52:37;;;;;;;33.83;22.87;;;;;;;;;;4992089;28;20953;-72
2022/11/20 08:55:08;;;;;;;42.15;29.75;;;;;;;;;;4991671;28;20913;-71
2022/11/20 08:57:36;;;;;;;39.33;23.70;;;;;;;;;;4996088;28;20695;-72
2022/11/20 09:00:04;;;;;;;34.97;24.00;;;;;;;;;;4989943;28;20216;-71
2022/11/20 09:02:33;;;;;;;38.57;25.30;;;;;;;;;;4986308;28;20224;-70
2022/11/20 09:05:02;;;;;;;34.07;22.43;;;;;;;;;;4994985;28;20209;-70
2022/11/20 09:07:29;;;;;;;30.57;22.67;;;;;;;;;;4990643;28;20229;-70
2022/11/20 09:09:57;;;;;;;31.97;22.27;;;;;;;;;;4991845;28;20953;-69
2022/11/20 09:12:49;;;;;;;33.50;24.53;;;;;;;;;;4999157;28;20302;-73
2022/11/20 09:15:16;;;;;;;33.17;22.33;;;;;;;;;;4999322;28;20224;-73
2022/11/20 09:17:50;;;;;;;35.17;25.07;;;;;;;;;;4938716;28;20209;-72
2022/11/20 09:20:18;;;;;;;38.63;26.27;;;;;;;;;;4990637;28;20211;-71
2022/11/20 09:22:46;;;;;;;35.07;23.43;;;;;;;;;;4992786;28;20220;-72
2022/11/20 09:25:13;;;;;;;37.17;24.50;;;;;;;;;;4995271;28;20255;-73
2022/11/20 09:27:41;;;;;;;36.53;23.40;;;;;;;;;;4996876;28;20221;-70
2022/11/20 09:30:10;;;;;;;32.97;23.40;;;;;;;;;;4994408;28;20618;-72
2022/11/20 09:32:39;;;;;;;33.47;24.53;;;;;;;;;;4995839;28;20836;-73
2022/11/20 09:35:07;;;;;;;37.20;24.47;;;;;;;;;;4994450;28;20208;-72
2022/11/20 09:37:34;;;;;;;38.37;26.67;;;;;;;;;;4987612;28;20209;-72
2022/11/20 09:40:01;;;;;;;38.40;25.30;;;;;;;;;;4987822;28;20204;-72
2022/11/20 09:42:37;;;;;;;33.30;25.60;;;;;;;;;;4996220;28;20558;-70
2022/11/20 09:45:22;;;;;;;35.13;25.83;;;;;;;;;;5000297;28;20201;-72
2022/11/20 09:48:00;;;;;;;31.20;24.63;;;;;;;;;;4991865;28;20343;-73
2022/11/20 09:50:31;;;;;;;30.63;23.07;;;;;;;;;;4993197;28;20268;-70
2022/11/20 09:53:05;;;;;;;30.73;23.17;;;;;;;;;;4996962;28;20209;-72
2022/11/20 09:55:34;;;;;;;29.17;22.40;;;;;;;;;;4998330;28;20224;-73
2022/11/20 09:58:01;;;;;;;30.93;22.80;;;;;;;;;;4994394;28;20200;-72
2022/11/20 10:00:30;;;;;;;33.20;24.03;;;;;;;;;;4990446;28;20224;-70
2022/11/20 10:03:01;;;;;;;29.47;21.57;;;;;;;;;;4997755;28;20205;-72
2022/11/20 10:05:30;;;;;;;29.37;23.43;;;;;;;;;;4992574;28;20729;-69
2022/11/20 10:08:03;;;;;;;32.90;26.42;;;;;;;;;;4995769;28;20463;-71
2022/11/20 10:10:34;;;;;;;27.30;21.33;;;;;;;;;;4993029;28;20208;-69
2022/11/20 10:13:21;;;;;;;29.03;23.10;;;;;;;;;;5002451;28;20243;-71
2022/11/20 10:15:55;;;;;;;26.83;21.50;;;;;;;;;;4995287;28;20320;-71
2022/11/20 10:18:28;;;;;;;25.33;22.07;;;;;;;;;;4997215;28;20201;-71
2022/11/20 10:20:59;;;;;;;25.97;20.27;;;;;;;;;;4988314;28;20210;-71
2022/11/20 10:23:50;;;;;;;24.07;20.37;;;;;;;;;;4997091;28;20255;-72
2022/11/20 10:26:21;;;;;;;24.23;20.57;;;;;;;;;;4981507;28;20731;-69
2022/11/20 10:28:53;;;;;;;24.77;20.03;;;;;;;;;;4943530;28;20228;-68
2022/11/20 10:31:31;;;;;;;23.10;19.27;;;;;;;;;;4990223;28;20205;-71
2022/11/20 10:34:01;;;;;;;22.30;19.20;;;;;;;;;;4996222;28;20208;-70
2022/11/20 10:36:41;;;;;;;24.35;20.58;;;;;;;;;;4994049;28;20456;-70
2022/11/20 10:39:15;;;;;;;20.57;18.47;;;;;;;;;;4997885;28;20205;-71
2022/11/20 10:41:43;;;;;;;19.50;17.40;;;;;;;;;;4987730;28;20449;-71
2022/11/20 10:44:13;;;;;;;17.83;16.00;;;;;;;;;;4994535;28;21337;-68
2022/11/20 10:46:44;;;;;;;19.77;16.30;;;;;;;;;;4993482;28;20232;-69
2022/11/20 10:49:13;;;;;;;19.10;16.27;;;;;;;;;;4997776;28;20553;-69
2022/11/20 10:51:45;;;;;;;21.33;15.90;;;;;;;;;;4995590;28;20208;-69
2022/11/20 10:54:16;;;;;;;18.60;15.70;;;;;;;;;;5000691;28;20213;-71
2022/11/20 10:56:47;;;;;;;19.20;15.63;;;;;;;;;;4998515;28;20224;-71
2022/11/20 10:59:33;;;;;;;18.57;16.53;;;;;;;;;;4996607;28;20198;-71
2022/11/20 11:02:02;;;;;;;18.27;16.57;;;;;;;;;;4999269;28;20549;-71
2022/11/20 11:04:33;;;;;;;19.17;17.13;;;;;;;;;;4984603;28;20217;-69
2022/11/20 11:07:07;;;;;;;18.67;16.67;;;;;;;;;;4973824;28;20229;-72
2022/11/20 11:09:38;;;;;;;19.47;15.33;;;;;;;;;;4999382;28;20216;-71
2022/11/20 11:12:07;;;;;;;17.10;15.00;;;;;;;;;;5000811;28;20441;-72
2022/11/20 11:14:42;;;;;;;20.20;16.07;;;;;;;;;;5000484;28;20205;-71
2022/11/20 11:17:21;;;;;;;16.77;14.77;;;;;;;;;;4995266;28;20236;-70
2022/11/20 11:19:57;;;;;;;16.20;14.60;;;;;;;;;;4998831;28;20215;-70
2022/11/20 11:22:25;;;;;;;16.00;14.10;;;;;;;;;;4994774;28;20591;-72
2022/11/20 11:24:53;;;;;;;16.23;13.27;;;;;;;;;;5000273;28;20216;-73
2022/11/20 11:27:20;;;;;;;14.23;12.83;;;;;;;;;;4996610;28;20224;-71
2022/11/20 11:29:48;;;;;;;15.57;12.47;;;;;;;;;;4996900;28;20255;-71
2022/11/20 11:32:16;;;;;;;12.30;11.10;;;;;;;;;;4996611;28;20205;-73
2022/11/20 11:34:45;;;;;;;14.30;12.80;;;;;;;;;;4997100;28;20213;-71
2022/11/20 11:37:16;;;;;;;13.23;11.73;;;;;;;;;;5000430;28;20233;-69
2022/11/20 11:39:44;;;;;;;13.17;11.90;;;;;;;;;;4947420;28;20208;-67
2022/11/20 11:42:15;;;;;;;14.00;12.77;;;;;;;;;;4991752;28;20224;-70
2022/11/20 11:47:31;;;;;;;12.77;11.57;;;;;;;;;;4993919;28;20507;-72
2022/11/20 11:50:14;;;;;;;12.60;11.40;;;;;;;;;;4993588;28;20235;-72
2022/11/20 11:52:43;;;;;;;10.90;9.90;;;;;;;;;;4998548;28;20205;-71
2022/11/20 11:55:15;;;;;;;10.83;9.73;;;;;;;;;;4999308;28;20213;-72
2022/11/20 11:57:46;;;;;;;8.73;8.03;;;;;;;;;;4981481;28;20604;-71
2022/11/20 12:00:15;;;;;;;9.60;8.80;;;;;;;;;;5001028;28;20200;-72
2022/11/20 12:02:49;;;;;;;9.60;8.87;;;;;;;;;;4993383;28;20201;-70
2022/11/20 12:05:20;;;;;;;9.43;8.43;;;;;;;;;;4988470;28;20231;-71
2022/11/20 12:07:48;;;;;;;9.57;8.63;;;;;;;;;;4997895;28;20212;-71
2022/11/20 12:10:21;;;;;;;9.13;8.27;;;;;;;;;;4999070;28;20221;-71
2022/11/20 12:12:50;;;;;;;8.90;8.10;;;;;;;;;;4994025;28;20208;-72
2022/11/20 12:15:23;;;;;;;10.17;8.17;;;;;;;;;;4995491;28;20215;-72
2022/11/20 12:17:51;;;;;;;9.87;9.03;;;;;;;;;;4995772;28;20607;-72
2022/11/20 12:20:20;;;;;;;7.87;7.27;;;;;;;;;;5000091;28;20205;-71
2022/11/20 12:22:52;;;;;;;7.93;7.30;;;;;;;;;;4994430;28;20691;-69
2022/11/20 12:25:23;;;;;;;6.73;6.13;;;;;;;;;;4999433;28;20239;-70
2022/11/20 12:27:57;;;;;;;7.60;6.97;;;;;;;;;;4994620;28;20309;-72
2022/11/20 12:30:25;;;;;;;11.70;10.70;;;;;;;;;;4993572;28;20221;-72
2022/11/20 12:33:20;;;;;;;7.60;7.00;;;;;;;;;;4999264;28;20690;-71
2022/11/20 12:36:05;;;;;;;7.20;6.70;;;;;;;;;;4992542;28;21306;-72
2022/11/20 12:38:46;;;;;;;9.07;7.80;;;;;;;;;;4991526;28;20217;-71
2022/11/20 12:45:08;;;;;;;6.53;6.07;;;;;;;;;;4997144;28;20208;-72
2022/11/20 12:47:00;;;;;;;5.83;5.43;;;;;;;;;;4992644;28;20247;-71
2022/11/20 12:49:33;;;;;;;5.90;5.30;;;;;;;;;;4944274;28;20229;-71
2022/11/20 12:52:12;;;;;;;5.37;5.07;;;;;;;;;;4991963;28;20205;-72
2022/11/20 12:55:02;;;;;;;7.63;5.17;;;;;;;;;;4995558;28;20206;-70
2022/11/20 12:57:33;;;;;;;6.70;5.50;;;;;;;;;;4996497;28;20225;-71
2022/11/20 13:00:13;;;;;;;5.07;4.63;;;;;;;;;;4995536;28;20200;-71
2022/11/20 13:02:55;;;;;;;5.40;5.00;;;;;;;;;;4998558;28;20236;-71
2022/11/20 13:05:25;;;;;;;5.13;4.73;;;;;;;;;;4993081;28;20584;-70
2022/11/20 13:07:53;;;;;;;8.83;8.10;;;;;;;;;;4995247;28;20235;-71
2022/11/20 13:10:27;;;;;;;4.70;4.30;;;;;;;;;;4997078;28;20441;-70
2022/11/20 13:12:58;;;;;;;3.33;3.03;;;;;;;;;;4995959;28;20331;-70
2022/11/20 13:15:34;;;;;;;3.03;2.87;;;;;;;;;;4991018;28;20220;-70
2022/11/20 13:18:03;;;;;;;3.10;2.90;;;;;;;;;;4997900;28;20215;-69
2022/11/20 13:20:31;;;;;;;2.70;2.60;;;;;;;;;;4994832;28;20727;-70
2022/11/20 13:22:59;;;;;;;2.50;2.30;;;;;;;;;;4996937;28;20671;-68
2022/11/20 13:25:28;;;;;;;1.83;1.83;;;;;;;;;;4997164;28;20890;-72
2022/11/20 13:27:56;;;;;;;2.20;2.10;;;;;;;;;;4997970;28;20846;-71
2022/11/20 13:30:24;;;;;;;2.67;2.47;;;;;;;;;;4996045;28;20220;-72
2022/11/20 13:32:53;;;;;;;2.37;2.27;;;;;;;;;;4986663;28;20209;-69
2022/11/20 13:35:25;;;;;;;4.20;3.90;;;;;;;;;;4993626;28;20239;-67
2022/11/20 13:38:00;;;;;;;3.80;3.53;;;;;;;;;;4996558;28;20684;-66
2022/11/20 13:40:29;;;;;;;3.80;3.50;;;;;;;;;;4990559;28;20207;-68
2022/11/20 13:43:02;;;;;;;1.77;1.77;;;;;;;;;;4996085;28;20212;-69
2022/11/20 13:45:31;;;;;;;1.80;1.77;;;;;;;;;;4989001;28;20221;-66
2022/11/20 13:48:01;;;;;;;2.03;1.93;;;;;;;;;;4996302;28;20682;-70
2022/11/20 13:50:40;;;;;;;4.40;4.00;;;;;;;;;;4990119;28;20263;-66
2022/11/20 13:53:15;;;;;;;3.33;3.10;;;;;;;;;;4993421;28;20260;-69
2022/11/20 13:55:46;;;;;;;2.50;2.40;;;;;;;;;;4995312;28;20230;-71
2022/11/20 13:58:22;;;;;;;3.00;2.90;;;;;;;;;;4995238;28;20212;-69
2022/11/20 14:00:52;;;;;;;2.90;2.80;;;;;;;;;;4955158;28;20205;-69
2022/11/20 14:03:21;;;;;;;2.17;2.07;;;;;;;;;;5000124;28;20259;-65
2022/11/20 14:06:14;;;;;;;2.33;2.23;;;;;;;;;;4989421;28;20229;-69
2022/11/20 14:08:44;;;;;;;2.58;2.45;;;;;;;;;;4993215;28;20463;-70
2022/11/20 14:11:17;;;;;;;2.13;2.03;;;;;;;;;;4996648;28;20221;-71
2022/11/20 14:13:56;;;;;;;1.93;1.83;;;;;;;;;;4998519;28;20212;-69
2022/11/20 14:16:23;;;;;;;2.30;2.20;;;;;;;;;;4996635;28;20784;-69
2022/11/20 14:18:51;;;;;;;3.10;2.90;;;;;;;;;;4997409;28;20588;-70
2022/11/20 14:21:25;;;;;;;2.60;2.50;;;;;;;;;;4998350;28;20201;-70
2022/11/20 14:24:03;;;;;;;1.40;1.40;;;;;;;;;;4992058;28;20875;-71
2022/11/20 14:26:32;;;;;;;1.70;1.60;;;;;;;;;;4999149;28;20765;-70
2022/11/20 14:29:00;;;;;;;2.07;1.97;;;;;;;;;;4995551;28;20629;-71
2022/11/20 14:31:28;;;;;;;1.97;1.87;;;;;;;;;;5000382;28;20223;-69
2022/11/20 14:33:56;;;;;;;2.07;1.97;;;;;;;;;;5000349;28;20210;-71
2022/11/20 14:36:25;;;;;;;1.80;1.70;;;;;;;;;;4994218;28;20719;-71
2022/11/20 14:38:53;;;;;;;2.40;2.20;;;;;;;;;;4993863;28;20449;-70
2022/11/20 14:41:40;;;;;;;1.60;1.60;;;;;;;3.03;100.00;96371.59;5026572;27;21298;-67
2022/11/20 14:44:09;;;;;;;1.40;1.40;;;;;;;2.40;100.00;96376.09;5014634;28;20778;-68
2022/11/20 14:46:37;;;;;;;2.63;1.50;;;;;;;2.35;100.00;96380.13;5008692;28;20735;-67
2022/11/20 14:49:05;;;;;;;3.17;2.97;;;;;;;2.31;100.00;96372.59;5004611;28;21452;-69
2022/11/20 14:51:34;;;;;;;2.87;2.67;;;;;;;2.18;100.00;96374.81;5006467;28;20216;-66